sensor_id;sensor_type;location;lat;lon;timestamp;pressure;altitude;pressure_sealevel;temperature;humidity
44872;BME280;30602;51.060;17.226;2023-02-19T00:02:19;101344.27;;;5.96;100.00
44872;BME280;30602;51.060;17.226;2023-02-19T00:05:50;101328.58;;;5.83;100.00
44872;BME280;30602;51.060;17.226;2023-02-19T00:09:29;101328.27;;;5.91;100.00
44872;BME280;30602;51.060;17.226;2023-02-19T00:12:45;101327.35;;;6.00;100.00
44872;BME280;30602;51.060;17.226;2023-02-19T00:20:10;101324.20;;;5.94;100.00
44872;BME280;30602;51.060;17.226;2023-02-19T00:24:06;101326.88;;;5.94;100.00
44872;BME280;30602;51.060;17.226;2023-02-19T00:27:59;101325.24;;;5.92;100.00
44872;BME280;30602;51.060;17.226;2023-02-19T00:31:28;101318.02;;;5.94;100.00
44872;BME280;30602;51.060;17.226;2023-02-19T00:35:07;101307.90;;;5.93;100.00
44872;BME280;30602;51.060;17.226;2023-02-19T00:38:19;101305.87;;;5.95;100.00
44872;BME280;30602;51.060;17.226;2023-02-19T00:41:33;101302.09;;;5.95;100.00
44872;BME280;30602;51.060;17.226;2023-02-19T00:45:19;101296.12;;;5.92;100.00
44872;BME280;30602;51.060;17.226;2023-02-19T00:48:51;101297.55;;;6.01;100.00
44872;BME280;30602;51.060;17.226;2023-02-19T00:52:20;101295.27;;;6.06;100.00
44872;BME280;30602;51.060;17.226;2023-02-19T00:55:57;101298.47;;;6.09;100.00
44872;BME280;30602;51.060;17.226;2023-02-19T00:59:48;101297.37;;;6.08;100.00
44872;BME280;30602;51.060;17.226;2023-02-19T01:03:01;101296.85;;;6.09;100.00
44872;BME280;30602;51.060;17.226;2023-02-19T01:06:13;101297.54;;;6.03;100.00
44872;BME280;30602;51.060;17.226;2023-02-19T01:10:22;101289.11;;;6.02;100.00
44872;BME280;30602;51.060;17.226;2023-02-19T01:13:58;101288.02;;;6.00;100.00
44872;BME280;30602;51.060;17.226;2023-02-19T01:17:20;101278.89;;;5.97;100.00
44872;BME280;30602;51.060;17.226;2023-02-19T01:21:05;101281.73;;;5.91;100.00
44872;BME280;30602;51.060;17.226;2023-02-19T01:24:34;101272.27;;;5.93;100.00
44872;BME280;30602;51.060;17.226;2023-02-19T01:28:21;101265.40;;;5.92;100.00
44872;BME280;30602;51.060;17.226;2023-02-19T01:31:52;101264.48;;;5.94;100.00
44872;BME280;30602;51.060;17.226;2023-02-19T01:35:23;101266.17;;;5.97;100.00
44872;BME280;30602;51.060;17.226;2023-02-19T01:39:40;101253.93;;;6.00;100.00
44872;BME280;30602;51.060;17.226;2023-02-19T01:43:20;101254.59;;;6.03;100.00
44872;BME280;30602;51.060;17.226;2023-02-19T01:46:54;101243.94;;;5.97;100.00
44872;BME280;30602;51.060;17.226;2023-02-19T01:50:28;101245.41;;;5.96;100.00
44872;BME280;30602;51.060;17.226;2023-02-19T01:53:56;101246.07;;;5.94;100.00
44872;BME280;30602;51.060;17.226;2023-02-19T01:57:46;101251.87;;;5.91;100.00
44872;BME280;30602;51.060;17.226;2023-02-19T02:01:29;101243.94;;;5.93;100.00
44872;BME280;30602;51.060;17.226;2023-02-19T02:04:53;101234.03;;;5.91;100.00
44872;BME280;30602;51.060;17.226;2023-02-19T02:08:58;101231.13;;;5.91;100.00
44872;BME280;30602;51.060;17.226;2023-02-19T02:12:44;101213.82;;;5.90;100.00
44872;BME280;30602;51.060;17.226;2023-02-19T02:24:19;101204.59;;;5.98;100.00
44872;BME280;30602;51.060;17.226;2023-02-19T02:31:17;101197.54;;;5.91;100.00
44872;BME280;30602;51.060;17.226;2023-02-19T02:34:58;101205.13;;;5.88;100.00
44872;BME280;30602;51.060;17.226;2023-02-19T02:38:27;101197.93;;;5.87;100.00
44872;BME280;30602;51.060;17.226;2023-02-19T02:41:59;101190.41;;;5.87;100.00
44872;BME280;30602;51.060;17.226;2023-02-19T02:45:42;101184.44;;;5.86;100.00
44872;BME280;30602;51.060;17.226;2023-02-19T02:49:21;101180.52;;;5.84;100.00
44872;BME280;30602;51.060;17.226;2023-02-19T02:53:10;101178.49;;;5.83;100.00
44872;BME280;30602;51.060;17.226;2023-02-19T02:56:46;101173.08;;;5.85;100.00
44872;BME280;30602;51.060;17.226;2023-02-19T03:00:29;101176.05;;;5.91;100.00
44872;BME280;30602;51.060;17.226;2023-02-19T03:09:00;101163.75;;;6.01;100.00
44872;BME280;30602;51.060;17.226;2023-02-19T03:12:47;101163.08;;;5.98;100.00
44872;BME280;30602;51.060;17.226;2023-02-19T03:16:47;101163.87;;;5.96;100.00
44872;BME280;30602;51.060;17.226;2023-02-19T03:20:47;101159.02;;;5.97;100.00
44872;BME280;30602;51.060;17.226;2023-02-19T03:24:27;101165.05;;;5.96;100.00
44872;BME280;30602;51.060;17.226;2023-02-19T03:28:26;101162.10;;;5.93;100.00
44872;BME280;30602;51.060;17.226;2023-02-19T03:36:20;101153.59;;;5.91;100.00
44872;BME280;30602;51.060;17.226;2023-02-19T03:39:47;101144.77;;;5.89;100.00
44872;BME280;30602;51.060;17.226;2023-02-19T03:43:26;101140.18;;;5.92;100.00
44872;BME280;30602;51.060;17.226;2023-02-19T03:47:29;101127.39;;;5.97;100.00
44872;BME280;30602;51.060;17.226;2023-02-19T04:02:49;101121.98;;;5.91;100.00
44872;BME280;30602;51.060;17.226;2023-02-19T04:06:08;101131.39;;;5.88;100.00
44872;BME280;30602;51.060;17.226;2023-02-19T04:09:45;101144.43;;;5.86;100.00
44872;BME280;30602;51.060;17.226;2023-02-19T04:13:37;101131.42;;;5.86;100.00
44872;BME280;30602;51.060;17.226;2023-02-19T04:17:52;101125.59;;;5.86;100.00
44872;BME280;30602;51.060;17.226;2023-02-19T04:21:44;101123.59;;;5.87;100.00
44872;BME280;30602;51.060;17.226;2023-02-19T04:25:17;101122.45;;;5.89;100.00
44872;BME280;30602;51.060;17.226;2023-02-19T04:28:29;101124.20;;;5.95;100.00
44872;BME280;30602;51.060;17.226;2023-02-19T04:32:10;101126.32;;;5.98;100.00
44872;BME280;30602;51.060;17.226;2023-02-19T04:35:33;101125.49;;;5.96;100.00
44872;BME280;30602;51.060;17.226;2023-02-19T04:43:07;101117.33;;;5.96;100.00
44872;BME280;30602;51.060;17.226;2023-02-19T04:46:22;101119.20;;;5.95;100.00
44872;BME280;30602;51.060;17.226;2023-02-19T04:50:05;101115.59;;;5.95;100.00
44872;BME280;30602;51.060;17.226;2023-02-19T04:53:14;101117.83;;;5.96;100.00
44872;BME280;30602;51.060;17.226;2023-02-19T04:57:09;101108.78;;;5.93;100.00
44872;BME280;30602;51.060;17.226;2023-02-19T05:00:49;101105.65;;;5.94;100.00
44872;BME280;30602;51.060;17.226;2023-02-19T05:04:27;101102.55;;;5.93;100.00
44872;BME280;30602;51.060;17.226;2023-02-19T05:07:38;101098.56;;;5.94;100.00
44872;BME280;30602;51.060;17.226;2023-02-19T05:11:23;101095.30;;;5.98;100.00
44872;BME280;30602;51.060;17.226;2023-02-19T05:15:05;101087.98;;;5.97;100.00
44872;BME280;30602;51.060;17.226;2023-02-19T05:19:21;101096.12;;;6.02;100.00
44872;BME280;30602;51.060;17.226;2023-02-19T05:23:03;101092.44;;;6.03;100.00
44872;BME280;30602;51.060;17.226;2023-02-19T05:26:46;101092.82;;;5.98;100.00
44872;BME280;30602;51.060;17.226;2023-02-19T05:29:55;101090.07;;;5.98;100.00
44872;BME280;30602;51.060;17.226;2023-02-19T05:33:47;101091.66;;;5.95;100.00
44872;BME280;30602;51.060;17.226;2023-02-19T05:37:46;101096.02;;;5.95;100.00
44872;BME280;30602;51.060;17.226;2023-02-19T05:41:52;101087.17;;;5.94;100.00
44872;BME280;30602;51.060;17.226;2023-02-19T05:45:04;101087.44;;;5.93;100.00
44872;BME280;30602;51.060;17.226;2023-02-19T05:52:05;101081.28;;;5.97;100.00
44872;BME280;30602;51.060;17.226;2023-02-19T05:55:15;101084.84;;;6.01;100.00
44872;BME280;30602;51.060;17.226;2023-02-19T05:58:30;101085.31;;;6.00;100.00
44872;BME280;30602;51.060;17.226;2023-02-19T06:02:23;101085.21;;;5.97;100.00
44872;BME280;30602;51.060;17.226;2023-02-19T06:06:32;101085.35;;;5.98;100.00
44872;BME280;30602;51.060;17.226;2023-02-19T06:09:54;101083.53;;;5.95;100.00
44872;BME280;30602;51.060;17.226;2023-02-19T06:13:29;101080.33;;;5.91;100.00
44872;BME280;30602;51.060;17.226;2023-02-19T06:16:40;101082.82;;;5.90;100.00
44872;BME280;30602;51.060;17.226;2023-02-19T06:19:51;101084.79;;;5.84;100.00
44872;BME280;30602;51.060;17.226;2023-02-19T06:23:22;101091.05;;;5.84;100.00
44872;BME280;30602;51.060;17.226;2023-02-19T06:26:34;101095.63;;;5.82;100.00
44872;BME280;30602;51.060;17.226;2023-02-19T06:30:23;101095.61;;;5.78;100.00
44872;BME280;30602;51.060;17.226;2023-02-19T06:37:37;101098.14;;;5.84;100.00
44872;BME280;30602;51.060;17.226;2023-02-19T06:41:07;101103.59;;;5.83;100.00
44872;BME280;30602;51.060;17.226;2023-02-19T06:44:42;101102.36;;;5.78;100.00
44872;BME280;30602;51.060;17.226;2023-02-19T06:48:13;101105.14;;;5.77;100.00
44872;BME280;30602;51.060;17.226;2023-02-19T06:51:55;101112.73;;;5.73;100.00
44872;BME280;30602;51.060;17.226;2023-02-19T06:55:10;101118.20;;;5.71;100.00
44872;BME280;30602;51.060;17.226;2023-02-19T06:58:40;101120.98;;;5.69;100.00
44872;BME280;30602;51.060;17.226;2023-02-19T07:06:00;101119.95;;;5.26;100.00
44872;BME280;30602;51.060;17.226;2023-02-19T07:09:45;101124.69;;;5.21;100.00
44872;BME280;30602;51.060;17.226;2023-02-19T07:13:39;101142.98;;;5.18;100.00
44872;BME280;30602;51.060;17.226;2023-02-19T07:16:51;101144.38;;;5.07;100.00
44872;BME280;30602;51.060;17.226;2023-02-19T07:20:19;101149.84;;;4.84;100.00
44872;BME280;30602;51.060;17.226;2023-02-19T07:23:30;101157.42;;;4.81;100.00
44872;BME280;30602;51.060;17.226;2023-02-19T07:27:12;101164.66;;;4.72;100.00
44872;BME280;30602;51.060;17.226;2023-02-19T07:30:42;101172.69;;;4.64;100.00
44872;BME280;30602;51.060;17.226;2023-02-19T07:34:14;101186.14;;;4.68;100.00
44872;BME280;30602;51.060;17.226;2023-02-19T07:37:45;101181.13;;;4.47;100.00
44872;BME280;30602;51.060;17.226;2023-02-19T07:41:15;101200.97;;;4.50;100.00
44872;BME280;30602;51.060;17.226;2023-02-19T07:44:58;101187.46;;;4.29;100.00
44872;BME280;30602;51.060;17.226;2023-02-19T07:48:29;101208.89;;;4.38;100.00
44872;BME280;30602;51.060;17.226;2023-02-19T07:52:12;101213.67;;;4.32;100.00
44872;BME280;30602;51.060;17.226;2023-02-19T07:55:43;101217.96;;;4.28;100.00
44872;BME280;30602;51.060;17.226;2023-02-19T07:59:15;101227.66;;;4.23;100.00
44872;BME280;30602;51.060;17.226;2023-02-19T08:03:02;101240.98;;;4.16;100.00
44872;BME280;30602;51.060;17.226;2023-02-19T08:06:52;101256.73;;;3.83;100.00
44872;BME280;30602;51.060;17.226;2023-02-19T08:10:43;101266.99;;;3.71;100.00
44872;BME280;30602;51.060;17.226;2023-02-19T08:14:37;101270.38;;;3.50;100.00
44872;BME280;30602;51.060;17.226;2023-02-19T08:18:23;101274.23;;;3.40;100.00
44872;BME280;30602;51.060;17.226;2023-02-19T08:21:46;101268.94;;;3.31;100.00
44872;BME280;30602;51.060;17.226;2023-02-19T08:24:56;101277.08;;;3.35;100.00
44872;BME280;30602;51.060;17.226;2023-02-19T08:28:06;101283.18;;;3.23;100.00
44872;BME280;30602;51.060;17.226;2023-02-19T08:32:03;101290.43;;;3.21;100.00
44872;BME280;30602;51.060;17.226;2023-02-19T08:35:34;101306.24;;;3.08;100.00
44872;BME280;30602;51.060;17.226;2023-02-19T08:43:11;101312.60;;;3.02;100.00
44872;BME280;30602;51.060;17.226;2023-02-19T08:46:44;101325.56;;;2.93;100.00
44872;BME280;30602;51.060;17.226;2023-02-19T08:50:11;101323.92;;;2.86;100.00
44872;BME280;30602;51.060;17.226;2023-02-19T08:54:02;101325.55;;;2.85;100.00
44872;BME280;30602;51.060;17.226;2023-02-19T08:57:53;101337.70;;;2.94;100.00
44872;BME280;30602;51.060;17.226;2023-02-19T09:01:15;101341.19;;;2.96;100.00
44872;BME280;30602;51.060;17.226;2023-02-19T09:04:50;101338.49;;;2.82;100.00
44872;BME280;30602;51.060;17.226;2023-02-19T09:08:01;101335.54;;;2.89;100.00
44872;BME280;30602;51.060;17.226;2023-02-19T09:11:30;101346.04;;;3.11;100.00
44872;BME280;30602;51.060;17.226;2023-02-19T09:15:06;101346.09;;;3.19;100.00
44872;BME280;30602;51.060;17.226;2023-02-19T09:18:50;101348.59;;;3.28;100.00
44872;BME280;30602;51.060;17.226;2023-02-19T09:22:40;101354.84;;;3.36;100.00
44872;BME280;30602;51.060;17.226;2023-02-19T09:26:09;101371.41;;;3.23;100.00
44872;BME280;30602;51.060;17.226;2023-02-19T09:29:42;101371.32;;;3.32;100.00
44872;BME280;30602;51.060;17.226;2023-02-19T09:33:04;101378.82;;;3.38;100.00
44872;BME280;30602;51.060;17.226;2023-02-19T09:36:35;101387.75;;;3.42;100.00
44872;BME280;30602;51.060;17.226;2023-02-19T09:39:47;101391.72;;;3.46;100.00
44872;BME280;30602;51.060;17.226;2023-02-19T09:42:59;101399.83;;;3.47;100.00
44872;BME280;30602;51.060;17.226;2023-02-19T09:46:32;101407.07;;;3.42;100.00
44872;BME280;30602;51.060;17.226;2023-02-19T09:50:10;101403.55;;;3.46;100.00
44872;BME280;30602;51.060;17.226;2023-02-19T09:53:42;101405.59;;;3.62;100.00
44872;BME280;30602;51.060;17.226;2023-02-19T09:57:16;101398.89;;;3.69;100.00
44872;BME280;30602;51.060;17.226;2023-02-19T10:00:34;101396.24;;;3.90;100.00
44872;BME280;30602;51.060;17.226;2023-02-19T10:04:14;101407.06;;;3.97;100.00
44872;BME280;30602;51.060;17.226;2023-02-19T10:12:01;101428.20;;;4.09;100.00
44872;BME280;30602;51.060;17.226;2023-02-19T10:15:49;101440.83;;;3.99;98.71
44872;BME280;30602;51.060;17.226;2023-02-19T10:19:12;101443.62;;;4.05;98.65
44872;BME280;30602;51.060;17.226;2023-02-19T10:22:23;101444.71;;;4.13;98.90
44872;BME280;30602;51.060;17.226;2023-02-19T10:26:38;101451.56;;;4.13;98.49
44872;BME280;30602;51.060;17.226;2023-02-19T10:30:17;101463.64;;;4.12;96.90
44872;BME280;30602;51.060;17.226;2023-02-19T10:33:55;101470.79;;;4.24;96.78
44872;BME280;30602;51.060;17.226;2023-02-19T10:37:31;101479.60;;;4.38;96.06
44872;BME280;30602;51.060;17.226;2023-02-19T10:48:23;101493.78;;;4.22;92.85
44872;BME280;30602;51.060;17.226;2023-02-19T10:51:57;101498.56;;;4.29;92.72
44872;BME280;30602;51.060;17.226;2023-02-19T10:55:33;101497.69;;;4.36;93.90
44872;BME280;30602;51.060;17.226;2023-02-19T10:58:47;101497.51;;;4.31;92.74
44872;BME280;30602;51.060;17.226;2023-02-19T11:02:30;101500.05;;;4.33;93.07
44872;BME280;30602;51.060;17.226;2023-02-19T11:09:26;101517.98;;;4.35;91.84
44872;BME280;30602;51.060;17.226;2023-02-19T11:12:58;101519.71;;;4.20;89.98
44872;BME280;30602;51.060;17.226;2023-02-19T11:16:36;101524.61;;;4.35;91.66
44872;BME280;30602;51.060;17.226;2023-02-19T11:20:14;101529.68;;;4.42;90.08
44872;BME280;30602;51.060;17.226;2023-02-19T11:24:34;101532.54;;;4.43;88.58
44872;BME280;30602;51.060;17.226;2023-02-19T11:31:53;101529.70;;;4.52;89.04
44872;BME280;30602;51.060;17.226;2023-02-19T11:35:22;101526.83;;;4.59;88.67
44872;BME280;30602;51.060;17.226;2023-02-19T11:38:46;101536.02;;;4.44;86.90
44872;BME280;30602;51.060;17.226;2023-02-19T11:46:20;101533.84;;;4.10;89.05
44872;BME280;30602;51.060;17.226;2023-02-19T11:50:02;101541.53;;;4.09;91.03
44872;BME280;30602;51.060;17.226;2023-02-19T11:53:44;101544.67;;;4.02;89.66
44872;BME280;30602;51.060;17.226;2023-02-19T11:57:39;101543.91;;;3.99;89.93
44872;BME280;30602;51.060;17.226;2023-02-19T12:38:31;101577.46;;;4.98;78.92
44872;BME280;30602;51.060;17.226;2023-02-19T12:45:59;101583.39;;;5.24;77.57
44872;BME280;30602;51.060;17.226;2023-02-19T12:49:49;101590.21;;;5.26;75.49
44872;BME280;30602;51.060;17.226;2023-02-19T12:57:26;101613.02;;;4.95;72.79
44872;BME280;30602;51.060;17.226;2023-02-19T13:00:57;101613.23;;;4.91;74.77
44872;BME280;30602;51.060;17.226;2023-02-19T13:12:00;101634.16;;;4.91;73.14
44872;BME280;30602;51.060;17.226;2023-02-19T13:15:45;101643.34;;;4.98;74.64
44872;BME280;30602;51.060;17.226;2023-02-19T13:19:30;101645.12;;;4.95;72.49
44872;BME280;30602;51.060;17.226;2023-02-19T13:27:11;101650.29;;;4.80;71.88
44872;BME280;30602;51.060;17.226;2023-02-19T13:31:37;101660.97;;;4.72;70.90
44872;BME280;30602;51.060;17.226;2023-02-19T13:38:54;101658.27;;;4.85;69.26
44872;BME280;30602;51.060;17.226;2023-02-19T13:42:30;101652.54;;;5.01;70.27
44872;BME280;30602;51.060;17.226;2023-02-19T13:50:05;101665.10;;;4.97;68.58
44872;BME280;30602;51.060;17.226;2023-02-19T13:57:26;101672.41;;;4.82;68.49
44872;BME280;30602;51.060;17.226;2023-02-19T14:19:14;101700.52;;;4.75;67.02
44872;BME280;30602;51.060;17.226;2023-02-19T14:22:58;101696.81;;;4.83;65.25
44872;BME280;30602;51.060;17.226;2023-02-19T14:26:26;101701.55;;;4.82;65.04
44872;BME280;30602;51.060;17.226;2023-02-19T14:30:01;101707.75;;;4.68;64.14
44872;BME280;30602;51.060;17.226;2023-02-19T14:33:35;101712.65;;;4.63;65.55
44872;BME280;30602;51.060;17.226;2023-02-19T14:37:42;101717.65;;;4.63;65.54
44872;BME280;30602;51.060;17.226;2023-02-19T14:41:27;101714.16;;;4.66;66.00
44872;BME280;30602;51.060;17.226;2023-02-19T14:45:14;101729.83;;;4.64;65.11
44872;BME280;30602;51.060;17.226;2023-02-19T14:48:45;101726.23;;;4.60;64.13
44872;BME280;30602;51.060;17.226;2023-02-19T14:52:03;101736.56;;;4.57;64.79
44872;BME280;30602;51.060;17.226;2023-02-19T14:59:29;101753.20;;;4.55;64.87
44872;BME280;30602;51.060;17.226;2023-02-19T15:03:04;101755.18;;;4.57;64.77
44872;BME280;30602;51.060;17.226;2023-02-19T15:06:45;101762.21;;;4.65;66.00
44872;BME280;30602;51.060;17.226;2023-02-19T15:09:58;101771.90;;;4.70;65.90
44872;BME280;30602;51.060;17.226;2023-02-19T15:13:33;101776.29;;;4.68;65.10
44872;BME280;30602;51.060;17.226;2023-02-19T15:17:31;101773.71;;;4.62;65.87
44872;BME280;30602;51.060;17.226;2023-02-19T15:21:00;101775.19;;;4.58;64.93
44872;BME280;30602;51.060;17.226;2023-02-19T15:25:10;101784.20;;;4.49;64.91
44872;BME280;30602;51.060;17.226;2023-02-19T15:28:29;101783.75;;;4.43;64.78
44872;BME280;30602;51.060;17.226;2023-02-19T15:32:00;101782.88;;;4.29;64.63
44872;BME280;30602;51.060;17.226;2023-02-19T15:36:00;101792.31;;;4.19;65.70
44872;BME280;30602;51.060;17.226;2023-02-19T15:39:32;101799.74;;;4.14;66.44
44872;BME280;30602;51.060;17.226;2023-02-19T15:42:47;101811.78;;;4.11;67.35
44872;BME280;30602;51.060;17.226;2023-02-19T15:46:03;101809.53;;;4.06;67.62
44872;BME280;30602;51.060;17.226;2023-02-19T15:49:39;101817.05;;;3.99;68.33
44872;BME280;30602;51.060;17.226;2023-02-19T15:53:27;101822.77;;;4.09;68.74
44872;BME280;30602;51.060;17.226;2023-02-19T15:56:49;101831.13;;;4.14;68.70
44872;BME280;30602;51.060;17.226;2023-02-19T16:04:13;101843.01;;;4.02;69.70
44872;BME280;30602;51.060;17.226;2023-02-19T16:07:43;101834.92;;;3.87;70.21
44872;BME280;30602;51.060;17.226;2023-02-19T16:10:57;101849.28;;;3.94;70.79
44872;BME280;30602;51.060;17.226;2023-02-19T16:18:48;101861.23;;;3.89;71.69
44872;BME280;30602;51.060;17.226;2023-02-19T16:22:44;101863.09;;;3.87;72.07
44872;BME280;30602;51.060;17.226;2023-02-19T16:26:08;101870.73;;;3.85;71.81
44872;BME280;30602;51.060;17.226;2023-02-19T16:29:40;101873.22;;;3.81;71.86
44872;BME280;30602;51.060;17.226;2023-02-19T16:33:33;101870.55;;;3.70;71.60
44872;BME280;30602;51.060;17.226;2023-02-19T16:41:12;101883.90;;;3.82;71.48
44872;BME280;30602;51.060;17.226;2023-02-19T16:44:36;101889.52;;;3.84;71.03
44872;BME280;30602;51.060;17.226;2023-02-19T16:48:19;101902.91;;;3.84;71.11
44872;BME280;30602;51.060;17.226;2023-02-19T16:51:30;101910.65;;;3.82;70.38
44872;BME280;30602;51.060;17.226;2023-02-19T16:55:00;101913.61;;;3.79;70.56
44872;BME280;30602;51.060;17.226;2023-02-19T16:58:13;101911.79;;;3.78;70.93
44872;BME280;30602;51.060;17.226;2023-02-19T17:01:25;101923.38;;;3.75;71.11
44872;BME280;30602;51.060;17.226;2023-02-19T17:04:47;101932.35;;;3.75;71.49
44872;BME280;30602;51.060;17.226;2023-02-19T17:12:11;101945.59;;;3.80;71.12
44872;BME280;30602;51.060;17.226;2023-02-19T17:16:05;101958.87;;;3.79;71.19
44872;BME280;30602;51.060;17.226;2023-02-19T17:19:36;101969.83;;;3.80;70.81
44872;BME280;30602;51.060;17.226;2023-02-19T17:23:18;101976.73;;;3.82;70.91
44872;BME280;30602;51.060;17.226;2023-02-19T17:26:35;101977.07;;;3.86;71.14
44872;BME280;30602;51.060;17.226;2023-02-19T17:34:00;101975.82;;;3.98;70.62
44872;BME280;30602;51.060;17.226;2023-02-19T17:37:46;101977.80;;;3.94;70.78
44872;BME280;30602;51.060;17.226;2023-02-19T17:40:58;101974.63;;;3.90;70.77
44872;BME280;30602;51.060;17.226;2023-02-19T17:44:08;101988.70;;;3.84;71.21
44872;BME280;30602;51.060;17.226;2023-02-19T17:47:29;101988.77;;;3.76;71.68
44872;BME280;30602;51.060;17.226;2023-02-19T17:50:57;101996.89;;;3.73;71.75
44872;BME280;30602;51.060;17.226;2023-02-19T17:54:37;101997.25;;;3.72;72.02
44872;BME280;30602;51.060;17.226;2023-02-19T18:02:28;102005.65;;;3.69;71.84
44872;BME280;30602;51.060;17.226;2023-02-19T18:13:50;102020.92;;;3.61;72.47
44872;BME280;30602;51.060;17.226;2023-02-19T18:17:29;102031.19;;;3.64;72.39
44872;BME280;30602;51.060;17.226;2023-02-19T18:21:12;102032.14;;;3.68;72.55
44872;BME280;30602;51.060;17.226;2023-02-19T18:24:47;102031.30;;;3.63;72.14
44872;BME280;30602;51.060;17.226;2023-02-19T18:27:57;102034.06;;;3.64;72.56
44872;BME280;30602;51.060;17.226;2023-02-19T18:31:06;102039.74;;;3.57;72.44
44872;BME280;30602;51.060;17.226;2023-02-19T18:34:29;102047.49;;;3.59;72.88
44872;BME280;30602;51.060;17.226;2023-02-19T18:38:22;102053.81;;;3.51;72.30
44872;BME280;30602;51.060;17.226;2023-02-19T18:42:08;102061.23;;;3.50;72.39
44872;BME280;30602;51.060;17.226;2023-02-19T18:46:00;102065.64;;;3.46;71.98
44872;BME280;30602;51.060;17.226;2023-02-19T18:49:48;102063.92;;;3.44;72.36
44872;BME280;30602;51.060;17.226;2023-02-19T18:53:24;102066.63;;;3.38;72.12
44872;BME280;30602;51.060;17.226;2023-02-19T18:57:06;102070.33;;;3.39;72.50
44872;BME280;30602;51.060;17.226;2023-02-19T19:00:42;102076.91;;;3.32;72.81
44872;BME280;30602;51.060;17.226;2023-02-19T19:04:24;102075.08;;;3.34;72.54
44872;BME280;30602;51.060;17.226;2023-02-19T19:08:11;102079.06;;;3.37;72.23
44872;BME280;30602;51.060;17.226;2023-02-19T19:11:31;102079.66;;;3.33;72.30
44872;BME280;30602;51.060;17.226;2023-02-19T19:14:39;102084.01;;;3.28;72.70
44872;BME280;30602;51.060;17.226;2023-02-19T19:18:33;102079.51;;;3.19;72.75
44872;BME280;30602;51.060;17.226;2023-02-19T19:26:14;102087.00;;;3.11;73.03
44872;BME280;30602;51.060;17.226;2023-02-19T19:29:43;102094.78;;;3.02;73.25
44872;BME280;30602;51.060;17.226;2023-02-19T19:32:57;102098.28;;;3.00;73.31
44872;BME280;30602;51.060;17.226;2023-02-19T19:36:32;102099.75;;;2.92;73.78
44872;BME280;30602;51.060;17.226;2023-02-19T19:40:41;102104.70;;;2.89;74.02
44872;BME280;30602;51.060;17.226;2023-02-19T19:44:57;102114.34;;;2.81;74.25
44872;BME280;30602;51.060;17.226;2023-02-19T19:48:28;102117.66;;;2.74;74.87
44872;BME280;30602;51.060;17.226;2023-02-19T19:52:36;102117.77;;;2.72;74.73
44872;BME280;30602;51.060;17.226;2023-02-19T19:56:00;102120.80;;;2.80;74.74
44872;BME280;30602;51.060;17.226;2023-02-19T19:59:22;102129.59;;;2.82;74.60
44872;BME280;30602;51.060;17.226;2023-02-19T20:02:33;102133.02;;;2.71;75.18
44872;BME280;30602;51.060;17.226;2023-02-19T20:05:43;102141.09;;;2.67;75.43
44872;BME280;30602;51.060;17.226;2023-02-19T20:09:23;102145.73;;;2.60;75.71
44872;BME280;30602;51.060;17.226;2023-02-19T20:13:31;102150.00;;;2.58;75.82
44872;BME280;30602;51.060;17.226;2023-02-19T20:17:14;102148.21;;;2.56;76.13
44872;BME280;30602;51.060;17.226;2023-02-19T20:24:51;102149.30;;;2.56;76.17
44872;BME280;30602;51.060;17.226;2023-02-19T20:28:27;102152.13;;;2.50;76.41
44872;BME280;30602;51.060;17.226;2023-02-19T20:32:08;102150.46;;;2.47;76.35
44872;BME280;30602;51.060;17.226;2023-02-19T20:35:39;102147.46;;;2.42;76.61
44872;BME280;30602;51.060;17.226;2023-02-19T20:39:54;102152.32;;;2.43;76.20
44872;BME280;30602;51.060;17.226;2023-02-19T20:43:35;102154.50;;;2.42;76.83
44872;BME280;30602;51.060;17.226;2023-02-19T20:46:48;102157.52;;;2.43;76.52
44872;BME280;30602;51.060;17.226;2023-02-19T20:50:49;102166.02;;;2.40;77.40
44872;BME280;30602;51.060;17.226;2023-02-19T20:54:24;102177.60;;;2.32;77.46
44872;BME280;30602;51.060;17.226;2023-02-19T20:58:07;102182.81;;;2.28;77.85
44872;BME280;30602;51.060;17.226;2023-02-19T21:01:38;102188.24;;;2.22;78.44
44872;BME280;30602;51.060;17.226;2023-02-19T21:05:20;102185.06;;;2.16;78.71
44872;BME280;30602;51.060;17.226;2023-02-19T21:09:38;102187.22;;;2.10;79.09
44872;BME280;30602;51.060;17.226;2023-02-19T21:13:08;102189.19;;;2.05;79.48
44872;BME280;30602;51.060;17.226;2023-02-19T21:16:47;102190.04;;;1.98;80.18
44872;BME280;30602;51.060;17.226;2023-02-19T21:20:15;102198.03;;;1.99;80.04
44872;BME280;30602;51.060;17.226;2023-02-19T21:24:01;102203.41;;;1.97;80.07
44872;BME280;30602;51.060;17.226;2023-02-19T21:27:12;102206.35;;;1.94;80.32
44872;BME280;30602;51.060;17.226;2023-02-19T21:30:41;102209.79;;;1.90;80.12
44872;BME280;30602;51.060;17.226;2023-02-19T21:34:04;102213.88;;;1.88;80.86
44872;BME280;30602;51.060;17.226;2023-02-19T21:37:15;102216.65;;;1.90;80.82
44872;BME280;30602;51.060;17.226;2023-02-19T21:40:43;102223.25;;;1.94;80.77
44872;BME280;30602;51.060;17.226;2023-02-19T21:43:54;102219.32;;;1.91;80.66
44872;BME280;30602;51.060;17.226;2023-02-19T21:47:23;102225.09;;;1.94;80.58
44872;BME280;30602;51.060;17.226;2023-02-19T21:50:34;102228.09;;;1.90;80.87
44872;BME280;30602;51.060;17.226;2023-02-19T21:54:31;102230.11;;;1.88;80.72
44872;BME280;30602;51.060;17.226;2023-02-19T21:58:06;102235.05;;;1.89;80.60
44872;BME280;30602;51.060;17.226;2023-02-19T22:01:39;102247.34;;;1.84;80.90
44872;BME280;30602;51.060;17.226;2023-02-19T22:05:11;102249.28;;;1.85;80.76
44872;BME280;30602;51.060;17.226;2023-02-19T22:08:43;102246.71;;;1.85;80.54